Nortonville, Kentucky
Current Conditions -  °F | °C
As of 4:55 PM on Thursday 23 Oct 2014 (Local Time) from K2I0 Reporting Station
Clear Clear  
Wind Chill: 62°   Ceiling: Unl
Heat Index: 62°   Visibility: 10mi
Dew Point: 42°   Wind: 0mph
Humidity: 47%   Direction: NA
Pressure: 30.14"   Gusts: NA
Location:  37.19°N, 87.45°W
Report Text: K2I0 232155Z AUTO 00000KT 10SM CLR 17/05 A3014 RMK AO2 T01670053
Loading
Personal Weather Stations






























Interactive Weather Map
Tropical Storm Tracking
New forecast layout! Learn more

10-Day Weather Forecast

Advertisements
Track Severe Weather on mobile